sensor_id;sensor_type;location;lat;lon;timestamp;temperature;humidity
18191;DHT22;47004;51.366;12.348;2022-11-14T00:01:32;1.60;99.90
18191;DHT22;47004;51.366;12.348;2022-11-14T00:03:34;1.60;99.90
18191;DHT22;47004;51.366;12.348;2022-11-14T00:05:38;1.50;99.90
18191;DHT22;47004;51.366;12.348;2022-11-14T00:07:40;1.50;99.90
18191;DHT22;47004;51.366;12.348;2022-11-14T00:09:44;1.50;99.90
18191;DHT22;47004;51.366;12.348;2022-11-14T00:11:46;1.50;99.90
18191;DHT22;47004;51.366;12.348;2022-11-14T00:13:50;1.50;99.90
18191;DHT22;47004;51.366;12.348;2022-11-14T00:15:52;1.40;99.90
18191;DHT22;47004;51.366;12.348;2022-11-14T00:17:54;1.40;99.90
18191;DHT22;47004;51.366;12.348;2022-11-14T00:19:56;1.40;99.90
18191;DHT22;47004;51.366;12.348;2022-11-14T00:21:58;1.40;99.90
18191;DHT22;47004;51.366;12.348;2022-11-14T00:24:00;1.30;99.90
18191;DHT22;47004;51.366;12.348;2022-11-14T00:26:04;1.30;99.90
18191;DHT22;47004;51.366;12.348;2022-11-14T00:28:06;1.30;99.90
18191;DHT22;47004;51.366;12.348;2022-11-14T00:30:08;1.30;99.90
18191;DHT22;47004;51.366;12.348;2022-11-14T00:32:10;1.30;99.90
18191;DHT22;47004;51.366;12.348;2022-11-14T00:34:12;1.20;99.90
18191;DHT22;47004;51.366;12.348;2022-11-14T00:36:14;1.20;99.90
18191;DHT22;47004;51.366;12.348;2022-11-14T00:38:16;1.20;99.90
18191;DHT22;47004;51.366;12.348;2022-11-14T00:40:18;1.10;99.90
18191;DHT22;47004;51.366;12.348;2022-11-14T00:42:21;1.10;99.90
18191;DHT22;47004;51.366;12.348;2022-11-14T00:44:23;1.10;99.90
18191;DHT22;47004;51.366;12.348;2022-11-14T00:46:25;1.10;99.90
18191;DHT22;47004;51.366;12.348;2022-11-14T00:48:27;1.10;99.90
18191;DHT22;47004;51.366;12.348;2022-11-14T00:50:29;1.10;99.90
18191;DHT22;47004;51.366;12.348;2022-11-14T00:52:31;1.10;99.90
18191;DHT22;47004;51.366;12.348;2022-11-14T00:54:33;1.10;99.90
18191;DHT22;47004;51.366;12.348;2022-11-14T00:56:35;1.00;99.90
18191;DHT22;47004;51.366;12.348;2022-11-14T00:58:38;1.00;99.90
18191;DHT22;47004;51.366;12.348;2022-11-14T01:00:40;1.00;99.90
18191;DHT22;47004;51.366;12.348;2022-11-14T01:02:42;1.00;99.90
18191;DHT22;47004;51.366;12.348;2022-11-14T01:04:44;1.00;99.90
18191;DHT22;47004;51.366;12.348;2022-11-14T01:06:45;0.90;99.90
18191;DHT22;47004;51.366;12.348;2022-11-14T01:08:49;0.90;99.90
18191;DHT22;47004;51.366;12.348;2022-11-14T01:10:51;0.90;99.90
18191;DHT22;47004;51.366;12.348;2022-11-14T01:12:53;0.90;99.90
18191;DHT22;47004;51.366;12.348;2022-11-14T01:14:56;0.80;99.90
18191;DHT22;47004;51.366;12.348;2022-11-14T01:16:58;0.80;99.90
18191;DHT22;47004;51.366;12.348;2022-11-14T01:19:00;0.80;99.90
18191;DHT22;47004;51.366;12.348;2022-11-14T01:21:04;0.80;99.90
18191;DHT22;47004;51.366;12.348;2022-11-14T01:23:07;0.80;99.90
18191;DHT22;47004;51.366;12.348;2022-11-14T01:25:09;0.70;99.90
18191;DHT22;47004;51.366;12.348;2022-11-14T01:27:11;0.70;99.90
18191;DHT22;47004;51.366;12.348;2022-11-14T01:29:13;0.70;99.90
18191;DHT22;47004;51.366;12.348;2022-11-14T01:31:18;0.70;99.90
18191;DHT22;47004;51.366;12.348;2022-11-14T01:33:20;0.70;99.90
18191;DHT22;47004;51.366;12.348;2022-11-14T01:35:22;0.70;99.90
18191;DHT22;47004;51.366;12.348;2022-11-14T01:37:24;0.70;99.90
18191;DHT22;47004;51.366;12.348;2022-11-14T01:39:26;0.80;99.90
18191;DHT22;47004;51.366;12.348;2022-11-14T01:41:28;0.80;99.90
18191;DHT22;47004;51.366;12.348;2022-11-14T01:43:31;0.70;99.90
18191;DHT22;47004;51.366;12.348;2022-11-14T01:45:46;0.70;99.90
18191;DHT22;47004;51.366;12.348;2022-11-14T01:47:52;0.70;99.90
18191;DHT22;47004;51.366;12.348;2022-11-14T01:49:57;0.70;99.90
18191;DHT22;47004;51.366;12.348;2022-11-14T01:52:03;0.80;99.90
18191;DHT22;47004;51.366;12.348;2022-11-14T01:54:08;0.80;99.90
18191;DHT22;47004;51.366;12.348;2022-11-14T01:56:14;0.90;99.90
18191;DHT22;47004;51.366;12.348;2022-11-14T01:58:18;0.90;99.90
18191;DHT22;47004;51.366;12.348;2022-11-14T02:00:21;0.90;99.90
18191;DHT22;47004;51.366;12.348;2022-11-14T02:02:24;1.00;99.90
18191;DHT22;47004;51.366;12.348;2022-11-14T02:04:31;1.00;99.90
18191;DHT22;47004;51.366;12.348;2022-11-14T02:06:34;1.00;99.90
18191;DHT22;47004;51.366;12.348;2022-11-14T02:08:37;1.00;99.90
18191;DHT22;47004;51.366;12.348;2022-11-14T02:10:39;1.10;99.90
18191;DHT22;47004;51.366;12.348;2022-11-14T02:12:41;1.10;99.90
18191;DHT22;47004;51.366;12.348;2022-11-14T02:14:46;1.10;99.90
18191;DHT22;47004;51.366;12.348;2022-11-14T02:16:48;1.10;99.90
18191;DHT22;47004;51.366;12.348;2022-11-14T02:18:50;1.20;99.90
18191;DHT22;47004;51.366;12.348;2022-11-14T02:20:54;1.20;99.90
18191;DHT22;47004;51.366;12.348;2022-11-14T02:22:56;1.20;99.90
18191;DHT22;47004;51.366;12.348;2022-11-14T02:24:58;1.20;99.90
18191;DHT22;47004;51.366;12.348;2022-11-14T02:27:00;1.20;99.90
18191;DHT22;47004;51.366;12.348;2022-11-14T02:29:02;1.20;99.90
18191;DHT22;47004;51.366;12.348;2022-11-14T02:31:04;1.20;99.90
18191;DHT22;47004;51.366;12.348;2022-11-14T02:33:06;1.30;99.90
18191;DHT22;47004;51.366;12.348;2022-11-14T02:35:08;1.30;99.90
18191;DHT22;47004;51.366;12.348;2022-11-14T02:37:12;1.30;99.90
18191;DHT22;47004;51.366;12.348;2022-11-14T02:39:13;1.30;99.90
18191;DHT22;47004;51.366;12.348;2022-11-14T02:41:15;1.30;99.90
18191;DHT22;47004;51.366;12.348;2022-11-14T02:43:17;1.20;99.90
18191;DHT22;47004;51.366;12.348;2022-11-14T02:45:19;1.30;99.90
18191;DHT22;47004;51.366;12.348;2022-11-14T02:47:21;1.30;99.90
18191;DHT22;47004;51.366;12.348;2022-11-14T02:49:24;1.40;99.90
18191;DHT22;47004;51.366;12.348;2022-11-14T02:51:26;1.40;99.90
18191;DHT22;47004;51.366;12.348;2022-11-14T02:53:29;1.40;99.90
18191;DHT22;47004;51.366;12.348;2022-11-14T02:55:31;1.50;99.90
18191;DHT22;47004;51.366;12.348;2022-11-14T02:57:33;1.40;99.90
18191;DHT22;47004;51.366;12.348;2022-11-14T02:59:35;1.50;99.90
18191;DHT22;47004;51.366;12.348;2022-11-14T03:01:37;1.50;99.90
18191;DHT22;47004;51.366;12.348;2022-11-14T03:03:38;1.50;99.90
18191;DHT22;47004;51.366;12.348;2022-11-14T03:05:40;1.50;99.90
18191;DHT22;47004;51.366;12.348;2022-11-14T03:07:42;1.50;99.90
18191;DHT22;47004;51.366;12.348;2022-11-14T03:09:45;1.50;99.90
18191;DHT22;47004;51.366;12.348;2022-11-14T03:11:47;1.40;99.90
18191;DHT22;47004;51.366;12.348;2022-11-14T03:13:49;1.40;99.90
18191;DHT22;47004;51.366;12.348;2022-11-14T03:15:51;1.40;99.90
18191;DHT22;47004;51.366;12.348;2022-11-14T03:17:53;1.40;99.90
18191;DHT22;47004;51.366;12.348;2022-11-14T03:19:55;1.40;99.90
18191;DHT22;47004;51.366;12.348;2022-11-14T03:21:59;1.40;99.90
18191;DHT22;47004;51.366;12.348;2022-11-14T03:24:01;1.40;99.90
18191;DHT22;47004;51.366;12.348;2022-11-14T03:26:06;1.40;99.90
18191;DHT22;47004;51.366;12.348;2022-11-14T03:28:08;1.40;99.90
18191;DHT22;47004;51.366;12.348;2022-11-14T03:30:10;1.30;99.90
18191;DHT22;47004;51.366;12.348;2022-11-14T03:32:12;1.20;99.90
18191;DHT22;47004;51.366;12.348;2022-11-14T03:34:14;1.30;99.90
18191;DHT22;47004;51.366;12.348;2022-11-14T03:36:16;1.20;99.90
18191;DHT22;47004;51.366;12.348;2022-11-14T03:38:18;1.10;99.90
18191;DHT22;47004;51.366;12.348;2022-11-14T03:40:22;1.20;99.90
18191;DHT22;47004;51.366;12.348;2022-11-14T03:42:25;1.10;99.90
18191;DHT22;47004;51.366;12.348;2022-11-14T03:44:27;1.10;99.90
18191;DHT22;47004;51.366;12.348;2022-11-14T03:46:29;1.10;99.90
18191;DHT22;47004;51.366;12.348;2022-11-14T03:48:31;1.10;99.90
18191;DHT22;47004;51.366;12.348;2022-11-14T03:50:33;1.00;99.90
18191;DHT22;47004;51.366;12.348;2022-11-14T03:52:35;1.00;99.90
18191;DHT22;47004;51.366;12.348;2022-11-14T03:54:37;1.00;99.90
18191;DHT22;47004;51.366;12.348;2022-11-14T03:56:39;1.20;99.90
18191;DHT22;47004;51.366;12.348;2022-11-14T03:58:42;1.10;99.90
18191;DHT22;47004;51.366;12.348;2022-11-14T04:00:44;1.10;99.90
18191;DHT22;47004;51.366;12.348;2022-11-14T04:02:46;1.10;99.90
18191;DHT22;47004;51.366;12.348;2022-11-14T04:04:48;1.10;99.90
18191;DHT22;47004;51.366;12.348;2022-11-14T04:06:50;1.20;99.90
18191;DHT22;47004;51.366;12.348;2022-11-14T04:08:52;1.20;99.90
18191;DHT22;47004;51.366;12.348;2022-11-14T04:10:56;1.20;99.90
18191;DHT22;47004;51.366;12.348;2022-11-14T04:12:58;1.20;99.90
18191;DHT22;47004;51.366;12.348;2022-11-14T04:15:01;1.20;99.90
18191;DHT22;47004;51.366;12.348;2022-11-14T04:17:03;1.20;99.90
18191;DHT22;47004;51.366;12.348;2022-11-14T04:19:05;1.20;99.90
18191;DHT22;47004;51.366;12.348;2022-11-14T04:21:07;1.20;99.90
18191;DHT22;47004;51.366;12.348;2022-11-14T04:23:09;1.20;99.90
18191;DHT22;47004;51.366;12.348;2022-11-14T04:25:10;1.20;99.90
18191;DHT22;47004;51.366;12.348;2022-11-14T04:27:12;1.20;99.90
18191;DHT22;47004;51.366;12.348;2022-11-14T04:29:14;1.20;99.90
18191;DHT22;47004;51.366;12.348;2022-11-14T04:31:17;1.20;99.90
18191;DHT22;47004;51.366;12.348;2022-11-14T04:33:19;1.20;99.90
18191;DHT22;47004;51.366;12.348;2022-11-14T04:35:21;1.20;99.90
18191;DHT22;47004;51.366;12.348;2022-11-14T04:37:23;1.20;99.90
18191;DHT22;47004;51.366;12.348;2022-11-14T04:39:25;1.10;99.90
18191;DHT22;47004;51.366;12.348;2022-11-14T04:41:27;1.10;99.90
18191;DHT22;47004;51.366;12.348;2022-11-14T04:43:30;1.10;99.90
18191;DHT22;47004;51.366;12.348;2022-11-14T04:45:32;1.10;99.90
18191;DHT22;47004;51.366;12.348;2022-11-14T04:47:36;1.10;99.90
18191;DHT22;47004;51.366;12.348;2022-11-14T04:49:37;1.10;99.90
18191;DHT22;47004;51.366;12.348;2022-11-14T04:51:39;1.00;99.90
18191;DHT22;47004;51.366;12.348;2022-11-14T04:53:41;1.00;99.90
18191;DHT22;47004;51.366;12.348;2022-11-14T04:55:43;1.00;99.90
18191;DHT22;47004;51.366;12.348;2022-11-14T04:57:46;1.00;99.90
18191;DHT22;47004;51.366;12.348;2022-11-14T04:59:48;1.00;99.90
18191;DHT22;47004;51.366;12.348;2022-11-14T05:01:49;1.00;99.90
18191;DHT22;47004;51.366;12.348;2022-11-14T05:03:53;1.00;99.90
18191;DHT22;47004;51.366;12.348;2022-11-14T05:05:59;1.00;99.90
18191;DHT22;47004;51.366;12.348;2022-11-14T05:08:03;1.00;99.90
18191;DHT22;47004;51.366;12.348;2022-11-14T05:10:06;1.00;99.90
18191;DHT22;47004;51.366;12.348;2022-11-14T05:12:08;1.10;99.90
18191;DHT22;47004;51.366;12.348;2022-11-14T05:14:10;1.10;99.90
18191;DHT22;47004;51.366;12.348;2022-11-14T05:16:12;1.10;99.90
18191;DHT22;47004;51.366;12.348;2022-11-14T05:18:14;1.00;99.90
18191;DHT22;47004;51.366;12.348;2022-11-14T05:20:18;1.00;99.90
18191;DHT22;47004;51.366;12.348;2022-11-14T05:22:20;1.10;99.90
18191;DHT22;47004;51.366;12.348;2022-11-14T05:24:21;1.10;99.90
18191;DHT22;47004;51.366;12.348;2022-11-14T05:26:23;1.00;99.90
18191;DHT22;47004;51.366;12.348;2022-11-14T05:28:25;1.00;99.90
18191;DHT22;47004;51.366;12.348;2022-11-14T05:30:27;0.90;99.90
18191;DHT22;47004;51.366;12.348;2022-11-14T05:32:29;1.00;99.90
18191;DHT22;47004;51.366;12.348;2022-11-14T05:34:31;0.90;99.90
18191;DHT22;47004;51.366;12.348;2022-11-14T05:36:35;0.90;99.90
18191;DHT22;47004;51.366;12.348;2022-11-14T05:38:37;0.90;99.90
18191;DHT22;47004;51.366;12.348;2022-11-14T05:40:39;0.90;99.90
18191;DHT22;47004;51.366;12.348;2022-11-14T05:42:40;0.90;99.90
18191;DHT22;47004;51.366;12.348;2022-11-14T05:44:42;0.80;99.90
18191;DHT22;47004;51.366;12.348;2022-11-14T05:46:44;0.80;99.90
18191;DHT22;47004;51.366;12.348;2022-11-14T05:48:46;0.80;99.90
18191;DHT22;47004;51.366;12.348;2022-11-14T05:50:48;0.80;99.90
18191;DHT22;47004;51.366;12.348;2022-11-14T05:52:56;0.80;99.90
18191;DHT22;47004;51.366;12.348;2022-11-14T05:54:58;0.70;99.90
18191;DHT22;47004;51.366;12.348;2022-11-14T05:57:00;0.70;99.90
18191;DHT22;47004;51.366;12.348;2022-11-14T05:59:02;0.70;99.90
18191;DHT22;47004;51.366;12.348;2022-11-14T06:01:06;0.70;99.90
18191;DHT22;47004;51.366;12.348;2022-11-14T06:03:08;0.70;99.90
18191;DHT22;47004;51.366;12.348;2022-11-14T06:05:10;0.60;99.90
18191;DHT22;47004;51.366;12.348;2022-11-14T06:07:12;0.70;99.90
18191;DHT22;47004;51.366;12.348;2022-11-14T06:09:15;0.60;99.90
18191;DHT22;47004;51.366;12.348;2022-11-14T06:11:19;0.60;99.90
18191;DHT22;47004;51.366;12.348;2022-11-14T06:13:22;0.60;99.90
18191;DHT22;47004;51.366;12.348;2022-11-14T06:15:24;0.60;99.90
18191;DHT22;47004;51.366;12.348;2022-11-14T06:17:26;0.60;99.90
18191;DHT22;47004;51.366;12.348;2022-11-14T06:19:28;0.60;99.90
18191;DHT22;47004;51.366;12.348;2022-11-14T06:21:29;0.60;99.90
18191;DHT22;47004;51.366;12.348;2022-11-14T06:23:31;0.60;99.90
18191;DHT22;47004;51.366;12.348;2022-11-14T06:25:35;0.60;99.90
18191;DHT22;47004;51.366;12.348;2022-11-14T06:27:37;0.60;99.90
18191;DHT22;47004;51.366;12.348;2022-11-14T06:29:39;0.60;99.90
18191;DHT22;47004;51.366;12.348;2022-11-14T06:31:40;0.60;99.90
18191;DHT22;47004;51.366;12.348;2022-11-14T06:33:42;0.50;99.90
18191;DHT22;47004;51.366;12.348;2022-11-14T06:35:44;0.50;99.90
18191;DHT22;47004;51.366;12.348;2022-11-14T06:37:46;0.50;99.90
18191;DHT22;47004;51.366;12.348;2022-11-14T06:39:48;0.50;99.90
18191;DHT22;47004;51.366;12.348;2022-11-14T06:41:51;0.50;99.90
18191;DHT22;47004;51.366;12.348;2022-11-14T06:43:54;0.50;99.90
18191;DHT22;47004;51.366;12.348;2022-11-14T06:45:56;0.50;99.90
18191;DHT22;47004;51.366;12.348;2022-11-14T06:47:58;0.50;99.90
18191;DHT22;47004;51.366;12.348;2022-11-14T06:50:00;0.40;99.90
18191;DHT22;47004;51.366;12.348;2022-11-14T06:52:02;0.50;99.90
18191;DHT22;47004;51.366;12.348;2022-11-14T06:54:04;0.50;99.90
18191;DHT22;47004;51.366;12.348;2022-11-14T06:56:07;0.60;99.90
18191;DHT22;47004;51.366;12.348;2022-11-14T06:58:13;0.50;99.90
18191;DHT22;47004;51.366;12.348;2022-11-14T07:00:15;0.60;99.90
18191;DHT22;47004;51.366;12.348;2022-11-14T07:02:17;0.50;99.90
18191;DHT22;47004;51.366;12.348;2022-11-14T07:04:19;0.40;99.90
18191;DHT22;47004;51.366;12.348;2022-11-14T07:06:23;0.50;99.90
18191;DHT22;47004;51.366;12.348;2022-11-14T07:08:26;0.50;99.90
18191;DHT22;47004;51.366;12.348;2022-11-14T07:10:28;0.50;99.90
18191;DHT22;47004;51.366;12.348;2022-11-14T07:12:29;0.50;99.90
18191;DHT22;47004;51.366;12.348;2022-11-14T07:14:33;0.40;99.90
18191;DHT22;47004;51.366;12.348;2022-11-14T07:16:35;0.40;99.90
18191;DHT22;47004;51.366;12.348;2022-11-14T07:18:37;0.40;99.90
18191;DHT22;47004;51.366;12.348;2022-11-14T07:20:39;0.40;99.90
18191;DHT22;47004;51.366;12.348;2022-11-14T07:22:41;0.40;99.90
18191;DHT22;47004;51.366;12.348;2022-11-14T07:24:42;0.50;99.90
18191;DHT22;47004;51.366;12.348;2022-11-14T07:26:45;0.40;99.90
18191;DHT22;47004;51.366;12.348;2022-11-14T07:28:47;0.50;99.90
18191;DHT22;47004;51.366;12.348;2022-11-14T07:30:50;0.50;99.90
18191;DHT22;47004;51.366;12.348;2022-11-14T07:32:55;0.50;99.90
18191;DHT22;47004;51.366;12.348;2022-11-14T07:34:57;0.50;99.90
18191;DHT22;47004;51.366;12.348;2022-11-14T07:36:59;0.50;99.90
18191;DHT22;47004;51.366;12.348;2022-11-14T07:39:01;0.50;99.90
18191;DHT22;47004;51.366;12.348;2022-11-14T07:41:05;0.50;99.90
18191;DHT22;47004;51.366;12.348;2022-11-14T07:43:07;0.50;99.90
18191;DHT22;47004;51.366;12.348;2022-11-14T07:45:10;0.50;99.90
18191;DHT22;47004;51.366;12.348;2022-11-14T07:47:14;0.60;99.90
18191;DHT22;47004;51.366;12.348;2022-11-14T07:49:16;0.70;99.90
18191;DHT22;47004;51.366;12.348;2022-11-14T07:51:19;0.60;99.90
18191;DHT22;47004;51.366;12.348;2022-11-14T07:53:21;0.60;99.90
18191;DHT22;47004;51.366;12.348;2022-11-14T07:55:24;0.60;99.90
18191;DHT22;47004;51.366;12.348;2022-11-14T07:57:26;0.60;99.90
18191;DHT22;47004;51.366;12.348;2022-11-14T07:59:28;0.70;99.90
18191;DHT22;47004;51.366;12.348;2022-11-14T08:01:30;0.70;99.90
18191;DHT22;47004;51.366;12.348;2022-11-14T08:03:33;0.70;99.90
18191;DHT22;47004;51.366;12.348;2022-11-14T08:05:35;0.70;99.90
18191;DHT22;47004;51.366;12.348;2022-11-14T08:07:37;0.70;99.90
18191;DHT22;47004;51.366;12.348;2022-11-14T08:09:41;0.80;99.90
18191;DHT22;47004;51.366;12.348;2022-11-14T08:11:43;0.80;99.90
18191;DHT22;47004;51.366;12.348;2022-11-14T08:13:51;0.90;99.90
18191;DHT22;47004;51.366;12.348;2022-11-14T08:15:53;0.90;99.90
18191;DHT22;47004;51.366;12.348;2022-11-14T08:17:56;1.00;99.90
18191;DHT22;47004;51.366;12.348;2022-11-14T08:20:00;1.10;99.90
18191;DHT22;47004;51.366;12.348;2022-11-14T08:22:02;1.10;99.90
18191;DHT22;47004;51.366;12.348;2022-11-14T08:24:04;1.10;99.90
18191;DHT22;47004;51.366;12.348;2022-11-14T08:26:06;1.20;99.90
18191;DHT22;47004;51.366;12.348;2022-11-14T08:28:08;1.30;99.90
18191;DHT22;47004;51.366;12.348;2022-11-14T08:30:11;1.30;99.90
18191;DHT22;47004;51.366;12.348;2022-11-14T08:32:13;1.40;99.90
18191;DHT22;47004;51.366;12.348;2022-11-14T08:34:15;1.40;99.90
18191;DHT22;47004;51.366;12.348;2022-11-14T08:36:19;1.50;99.90
18191;DHT22;47004;51.366;12.348;2022-11-14T08:38:21;1.60;99.90
18191;DHT22;47004;51.366;12.348;2022-11-14T08:40:23;1.80;99.90
18191;DHT22;47004;51.366;12.348;2022-11-14T08:42:25;1.70;99.90
18191;DHT22;47004;51.366;12.348;2022-11-14T08:44:28;1.70;99.90
18191;DHT22;47004;51.366;12.348;2022-11-14T08:46:30;1.80;99.90
18191;DHT22;47004;51.366;12.348;2022-11-14T08:48:32;1.90;99.90
18191;DHT22;47004;51.366;12.348;2022-11-14T08:50:34;1.90;99.90
18191;DHT22;47004;51.366;12.348;2022-11-14T08:52:37;2.00;99.90
18191;DHT22;47004;51.366;12.348;2022-11-14T08:54:39;2.10;99.90
18191;DHT22;47004;51.366;12.348;2022-11-14T08:56:41;2.20;99.90
18191;DHT22;47004;51.366;12.348;2022-11-14T08:58:43;2.20;99.90
18191;DHT22;47004;51.366;12.348;2022-11-14T09:00:45;2.30;99.90
18191;DHT22;47004;51.366;12.348;2022-11-14T09:02:47;2.50;99.90
18191;DHT22;47004;51.366;12.348;2022-11-14T09:04:49;2.50;99.90
18191;DHT22;47004;51.366;12.348;2022-11-14T09:06:50;2.60;99.90
18191;DHT22;47004;51.366;12.348;2022-11-14T09:08:54;2.70;99.90
18191;DHT22;47004;51.366;12.348;2022-11-14T09:11:01;3.10;99.90
18191;DHT22;47004;51.366;12.348;2022-11-14T09:13:06;2.80;99.90
18191;DHT22;47004;51.366;12.348;2022-11-14T09:15:08;2.90;99.90
18191;DHT22;47004;51.366;12.348;2022-11-14T09:17:11;3.00;99.90
18191;DHT22;47004;51.366;12.348;2022-11-14T09:19:13;3.20;99.90
18191;DHT22;47004;51.366;12.348;2022-11-14T09:21:15;3.30;99.90
18191;DHT22;47004;51.366;12.348;2022-11-14T09:23:17;3.40;99.90
18191;DHT22;47004;51.366;12.348;2022-11-14T09:25:20;3.50;99.90
18191;DHT22;47004;51.366;12.348;2022-11-14T09:27:22;3.60;99.90
18191;DHT22;47004;51.366;12.348;2022-11-14T09:29:26;3.70;99.90
18191;DHT22;47004;51.366;12.348;2022-11-14T09:31:28;3.80;99.90
18191;DHT22;47004;51.366;12.348;2022-11-14T09:33:31;3.80;99.90
18191;DHT22;47004;51.366;12.348;2022-11-14T09:35:33;3.90;99.90
18191;DHT22;47004;51.366;12.348;2022-11-14T09:37:36;4.00;99.90
18191;DHT22;47004;51.366;12.348;2022-11-14T09:39:38;4.00;99.90
18191;DHT22;47004;51.366;12.348;2022-11-14T09:41:51;4.10;99.90
18191;DHT22;47004;51.366;12.348;2022-11-14T09:44:20;4.30;99.90
18191;DHT22;47004;51.366;12.348;2022-11-14T09:46:32;4.30;99.90
18191;DHT22;47004;51.366;12.348;2022-11-14T09:48:37;4.50;99.90
18191;DHT22;47004;51.366;12.348;2022-11-14T09:50:43;4.60;99.90
18191;DHT22;47004;51.366;12.348;2022-11-14T09:52:52;4.60;99.90
18191;DHT22;47004;51.366;12.348;2022-11-14T09:55:00;4.80;99.90
18191;DHT22;47004;51.366;12.348;2022-11-14T09:57:13;4.90;99.90
18191;DHT22;47004;51.366;12.348;2022-11-14T09:59:15;5.00;99.90
18191;DHT22;47004;51.366;12.348;2022-11-14T10:01:27;5.20;99.90
18191;DHT22;47004;51.366;12.348;2022-11-14T10:03:37;5.30;99.90
18191;DHT22;47004;51.366;12.348;2022-11-14T10:08:36;5.50;99.90
18191;DHT22;47004;51.366;12.348;2022-11-14T10:10:50;5.70;99.90
18191;DHT22;47004;51.366;12.348;2022-11-14T10:12:59;5.80;99.90
18191;DHT22;47004;51.366;12.348;2022-11-14T10:15:17;5.90;99.90
18191;DHT22;47004;51.366;12.348;2022-11-14T10:17:40;6.10;99.90
18191;DHT22;47004;51.366;12.348;2022-11-14T10:19:48;6.20;99.90
18191;DHT22;47004;51.366;12.348;2022-11-14T10:22:07;6.30;99.90
18191;DHT22;47004;51.366;12.348;2022-11-14T10:24:26;6.50;99.90
18191;DHT22;47004;51.366;12.348;2022-11-14T10:26:37;6.60;99.90
18191;DHT22;47004;51.366;12.348;2022-11-14T10:28:58;6.70;99.90
18191;DHT22;47004;51.366;12.348;2022-11-14T10:31:08;6.80;99.90
18191;DHT22;47004;51.366;12.348;2022-11-14T10:33:26;7.00;99.90
18191;DHT22;47004;51.366;12.348;2022-11-14T10:35:36;7.10;99.90
18191;DHT22;47004;51.366;12.348;2022-11-14T10:37:45;7.20;99.90
18191;DHT22;47004;51.366;12.348;2022-11-14T10:39:51;7.30;99.90
18191;DHT22;47004;51.366;12.348;2022-11-14T10:41:56;7.40;99.90
18191;DHT22;47004;51.366;12.348;2022-11-14T10:44:02;7.60;99.90
18191;DHT22;47004;51.366;12.348;2022-11-14T10:46:08;7.70;99.90
18191;DHT22;47004;51.366;12.348;2022-11-14T10:48:16;7.80;99.90
18191;DHT22;47004;51.366;12.348;2022-11-14T10:50:24;7.90;99.90
18191;DHT22;47004;51.366;12.348;2022-11-14T10:52:35;8.10;99.90
18191;DHT22;47004;51.366;12.348;2022-11-14T10:54:42;8.20;99.90
18191;DHT22;47004;51.366;12.348;2022-11-14T10:56:46;8.40;99.90
18191;DHT22;47004;51.366;12.348;2022-11-14T10:58:49;8.50;99.90
18191;DHT22;47004;51.366;12.348;2022-11-14T11:00:52;8.60;99.90
18191;DHT22;47004;51.366;12.348;2022-11-14T11:02:55;8.80;99.90
18191;DHT22;47004;51.366;12.348;2022-11-14T11:05:10;8.90;99.90
18191;DHT22;47004;51.366;12.348;2022-11-14T11:07:21;9.00;99.90
18191;DHT22;47004;51.366;12.348;2022-11-14T11:09:41;9.20;99.90
18191;DHT22;47004;51.366;12.348;2022-11-14T11:12:02;9.50;99.90
18191;DHT22;47004;51.366;12.348;2022-11-14T11:14:04;9.60;99.90
18191;DHT22;47004;51.366;12.348;2022-11-14T11:16:10;9.80;99.90
18191;DHT22;47004;51.366;12.348;2022-11-14T11:18:24;10.00;99.90
18191;DHT22;47004;51.366;12.348;2022-11-14T11:20:30;10.20;99.90
18191;DHT22;47004;51.366;12.348;2022-11-14T11:22:36;10.40;99.90
18191;DHT22;47004;51.366;12.348;2022-11-14T11:24:38;10.60;99.90
18191;DHT22;47004;51.366;12.348;2022-11-14T11:26:40;10.80;99.90
18191;DHT22;47004;51.366;12.348;2022-11-14T11:28:42;11.00;99.90
18191;DHT22;47004;51.366;12.348;2022-11-14T11:30:55;11.20;99.90
18191;DHT22;47004;51.366;12.348;2022-11-14T11:33:14;11.50;99.90
18191;DHT22;47004;51.366;12.348;2022-11-14T11:35:16;11.80;99.90
18191;DHT22;47004;51.366;12.348;2022-11-14T11:37:20;12.20;99.90
18191;DHT22;47004;51.366;12.348;2022-11-14T11:39:31;12.40;99.90
18191;DHT22;47004;51.366;12.348;2022-11-14T11:41:36;12.70;99.90
18191;DHT22;47004;51.366;12.348;2022-11-14T11:43:43;12.90;99.90
18191;DHT22;47004;51.366;12.348;2022-11-14T11:45:48;13.20;99.90
18191;DHT22;47004;51.366;12.348;2022-11-14T11:47:55;13.50;99.90
18191;DHT22;47004;51.366;12.348;2022-11-14T11:49:59;13.80;99.90
18191;DHT22;47004;51.366;12.348;2022-11-14T11:52:08;14.10;99.90
18191;DHT22;47004;51.366;12.348;2022-11-14T11:54:15;14.40;99.90
18191;DHT22;47004;51.366;12.348;2022-11-14T11:56:21;14.60;99.90
18191;DHT22;47004;51.366;12.348;2022-11-14T11:58:29;14.90;99.90
18191;DHT22;47004;51.366;12.348;2022-11-14T12:00:33;15.20;99.90
18191;DHT22;47004;51.366;12.348;2022-11-14T12:02:40;15.50;99.90
18191;DHT22;47004;51.366;12.348;2022-11-14T12:04:43;15.80;97.30
18191;DHT22;47004;51.366;12.348;2022-11-14T12:06:54;16.00;93.70
18191;DHT22;47004;51.366;12.348;2022-11-14T12:09:12;16.30;88.30
18191;DHT22;47004;51.366;12.348;2022-11-14T12:11:18;16.50;79.50
18191;DHT22;47004;51.366;12.348;2022-11-14T12:14:04;16.70;71.90
18191;DHT22;47004;51.366;12.348;2022-11-14T12:16:18;17.00;68.80
18191;DHT22;47004;51.366;12.348;2022-11-14T12:18:42;17.20;69.10
18191;DHT22;47004;51.366;12.348;2022-11-14T12:20:55;17.50;65.70
18191;DHT22;47004;51.366;12.348;2022-11-14T12:23:29;17.70;60.30
18191;DHT22;47004;51.366;12.348;2022-11-14T12:28:20;18.10;56.70
18191;DHT22;47004;51.366;12.348;2022-11-14T12:30:26;18.40;55.70
18191;DHT22;47004;51.366;12.348;2022-11-14T12:32:31;18.60;55.70
18191;DHT22;47004;51.366;12.348;2022-11-14T12:34:37;18.70;54.90
18191;DHT22;47004;51.366;12.348;2022-11-14T12:36:43;18.90;54.80
18191;DHT22;47004;51.366;12.348;2022-11-14T12:38:49;19.10;54.20
18191;DHT22;47004;51.366;12.348;2022-11-14T12:40:54;19.20;53.30
18191;DHT22;47004;51.366;12.348;2022-11-14T12:43:01;19.30;52.20
18191;DHT22;47004;51.366;12.348;2022-11-14T12:45:03;19.50;51.60
18191;DHT22;47004;51.366;12.348;2022-11-14T12:47:23;19.60;50.30
18191;DHT22;47004;51.366;12.348;2022-11-14T12:49:36;19.70;50.50
18191;DHT22;47004;51.366;12.348;2022-11-14T12:51:49;19.80;49.80
18191;DHT22;47004;51.366;12.348;2022-11-14T12:53:54;20.00;49.10
18191;DHT22;47004;51.366;12.348;2022-11-14T12:56:10;20.00;48.60
18191;DHT22;47004;51.366;12.348;2022-11-14T12:58:19;20.00;47.80
18191;DHT22;47004;51.366;12.348;2022-11-14T13:00:24;20.00;47.60
18191;DHT22;47004;51.366;12.348;2022-11-14T13:05:04;20.10;47.00
18191;DHT22;47004;51.366;12.348;2022-11-14T13:07:24;20.10;47.00
18191;DHT22;47004;51.366;12.348;2022-11-14T13:09:38;20.10;47.20
18191;DHT22;47004;51.366;12.348;2022-11-14T13:11:43;20.10;47.20
18191;DHT22;47004;51.366;12.348;2022-11-14T13:14:08;20.10;47.10